Iranshahr, Iran
Current Conditions -  °F | °C
As of 12:00 PM on Friday 31 Oct 2014 (Local Time) from OIZI Reporting Station
Few Clouds Few Clouds  
Wind Chill: 84°   Ceiling: Unl
Heat Index: 84°   Visibility: 5mi
Dew Point: 36°   Wind: 5mph
Humidity: 18%   Direction: 170°S
Pressure: 29.97"   Gusts: NA
Location:  27.21°N, 60.69°E
Report Text: OIZI 310900Z 17004KT 8000 FEW045 29/02 Q1015
Loading
Personal Weather Stations






























Interactive Weather Map
Tropical Storm Tracking
New forecast layout! Learn more

10-Day Weather Forecast

Advertisements
Track Severe Weather on mobile